sensor_id;sensor_type;location;lat;lon;timestamp;temperature;humidity
74359;DHT22;62792;46.236;6.040;2022-10-20T00:01:26;24.00;65.00
74359;DHT22;62792;46.236;6.040;2022-10-20T00:06:29;24.00;65.10
74359;DHT22;62792;46.236;6.040;2022-10-20T00:11:32;24.00;64.80
74359;DHT22;62792;46.236;6.040;2022-10-20T00:16:37;23.90;64.70
74359;DHT22;62792;46.236;6.040;2022-10-20T00:21:40;24.10;64.60
74359;DHT22;62792;46.236;6.040;2022-10-20T00:26:42;24.10;64.50
74359;DHT22;62792;46.236;6.040;2022-10-20T00:31:46;24.10;64.50
74359;DHT22;62792;46.236;6.040;2022-10-20T00:36:49;24.10;64.50
74359;DHT22;62792;46.236;6.040;2022-10-20T00:41:52;24.10;64.60
74359;DHT22;62792;46.236;6.040;2022-10-20T00:46:56;24.00;64.40
74359;DHT22;62792;46.236;6.040;2022-10-20T00:51:59;24.10;64.60
74359;DHT22;62792;46.236;6.040;2022-10-20T00:57:01;24.00;64.60
74359;DHT22;62792;46.236;6.040;2022-10-20T01:02:05;24.00;64.70
74359;DHT22;62792;46.236;6.040;2022-10-20T01:07:09;24.00;65.00
74359;DHT22;62792;46.236;6.040;2022-10-20T01:12:14;24.00;64.60
74359;DHT22;62792;46.236;6.040;2022-10-20T01:17:22;24.00;64.70
74359;DHT22;62792;46.236;6.040;2022-10-20T01:22:31;23.90;64.70
74359;DHT22;62792;46.236;6.040;2022-10-20T01:27:39;24.00;64.70
74359;DHT22;62792;46.236;6.040;2022-10-20T01:32:48;24.00;64.80
74359;DHT22;62792;46.236;6.040;2022-10-20T01:37:55;24.00;64.60
74359;DHT22;62792;46.236;6.040;2022-10-20T01:43:00;24.00;64.80
74359;DHT22;62792;46.236;6.040;2022-10-20T01:48:05;24.00;64.70
74359;DHT22;62792;46.236;6.040;2022-10-20T01:53:08;23.90;64.60
74359;DHT22;62792;46.236;6.040;2022-10-20T01:58:17;24.00;64.50
74359;DHT22;62792;46.236;6.040;2022-10-20T02:03:29;23.90;64.70
74359;DHT22;62792;46.236;6.040;2022-10-20T02:08:33;23.90;64.80
74359;DHT22;62792;46.236;6.040;2022-10-20T02:13:41;23.90;64.90
74359;DHT22;62792;46.236;6.040;2022-10-20T02:18:45;23.90;64.50
74359;DHT22;62792;46.236;6.040;2022-10-20T02:23:48;23.90;64.80
74359;DHT22;62792;46.236;6.040;2022-10-20T02:28:54;23.90;64.80
74359;DHT22;62792;46.236;6.040;2022-10-20T02:33:58;24.00;64.70
74359;DHT22;62792;46.236;6.040;2022-10-20T02:39:02;23.80;64.80
74359;DHT22;62792;46.236;6.040;2022-10-20T02:44:06;23.90;64.70
74359;DHT22;62792;46.236;6.040;2022-10-20T02:49:09;23.90;64.70
74359;DHT22;62792;46.236;6.040;2022-10-20T02:54:11;23.90;64.70
74359;DHT22;62792;46.236;6.040;2022-10-20T02:59:15;23.90;64.70
74359;DHT22;62792;46.236;6.040;2022-10-20T03:04:18;23.90;64.90
74359;DHT22;62792;46.236;6.040;2022-10-20T03:09:21;23.90;64.80
74359;DHT22;62792;46.236;6.040;2022-10-20T03:14:24;23.80;64.80
74359;DHT22;62792;46.236;6.040;2022-10-20T03:19:27;23.80;64.60
74359;DHT22;62792;46.236;6.040;2022-10-20T03:24:30;23.90;64.60
74359;DHT22;62792;46.236;6.040;2022-10-20T03:29:34;23.90;64.70
74359;DHT22;62792;46.236;6.040;2022-10-20T03:34:36;23.90;64.50
74359;DHT22;62792;46.236;6.040;2022-10-20T03:39:39;23.90;64.70
74359;DHT22;62792;46.236;6.040;2022-10-20T03:44:43;23.90;64.80
74359;DHT22;62792;46.236;6.040;2022-10-20T03:49:46;23.90;64.70
74359;DHT22;62792;46.236;6.040;2022-10-20T03:54:49;23.90;64.60
74359;DHT22;62792;46.236;6.040;2022-10-20T03:59:53;23.80;65.30
74359;DHT22;62792;46.236;6.040;2022-10-20T04:04:55;23.60;67.20
74359;DHT22;62792;46.236;6.040;2022-10-20T04:09:58;23.60;67.00
74359;DHT22;62792;46.236;6.040;2022-10-20T04:15:04;23.50;67.10
74359;DHT22;62792;46.236;6.040;2022-10-20T04:20:07;23.60;67.30
74359;DHT22;62792;46.236;6.040;2022-10-20T04:25:10;23.70;66.30
74359;DHT22;62792;46.236;6.040;2022-10-20T04:30:14;23.60;66.20
74359;DHT22;62792;46.236;6.040;2022-10-20T04:35:17;23.60;67.40
74359;DHT22;62792;46.236;6.040;2022-10-20T04:40:19;23.70;66.10
74359;DHT22;62792;46.236;6.040;2022-10-20T04:45:23;23.80;65.80
74359;DHT22;62792;46.236;6.040;2022-10-20T04:50:26;23.80;65.60
74359;DHT22;62792;46.236;6.040;2022-10-20T04:55:28;23.70;65.40
74359;DHT22;62792;46.236;6.040;2022-10-20T05:00:32;23.80;65.50
74359;DHT22;62792;46.236;6.040;2022-10-20T05:05:35;23.80;65.40
74359;DHT22;62792;46.236;6.040;2022-10-20T05:10:38;23.80;65.50
74359;DHT22;62792;46.236;6.040;2022-10-20T05:15:42;23.90;65.40
74359;DHT22;62792;46.236;6.040;2022-10-20T05:20:45;23.90;65.40
74359;DHT22;62792;46.236;6.040;2022-10-20T05:26:09;23.80;65.40
74359;DHT22;62792;46.236;6.040;2022-10-20T05:31:14;23.80;65.30
74359;DHT22;62792;46.236;6.040;2022-10-20T05:36:18;23.90;65.20
74359;DHT22;62792;46.236;6.040;2022-10-20T05:41:22;23.80;65.20
74359;DHT22;62792;46.236;6.040;2022-10-20T05:46:27;23.90;65.40
74359;DHT22;62792;46.236;6.040;2022-10-20T05:51:32;23.80;65.30
74359;DHT22;62792;46.236;6.040;2022-10-20T05:56:35;23.90;65.10
74359;DHT22;62792;46.236;6.040;2022-10-20T06:01:39;23.90;65.10
74359;DHT22;62792;46.236;6.040;2022-10-20T06:06:49;23.80;65.00
74359;DHT22;62792;46.236;6.040;2022-10-20T06:11:52;23.80;65.20
74359;DHT22;62792;46.236;6.040;2022-10-20T06:16:56;23.80;65.20
74359;DHT22;62792;46.236;6.040;2022-10-20T06:21:59;23.90;65.10
74359;DHT22;62792;46.236;6.040;2022-10-20T06:27:07;23.90;65.10
74359;DHT22;62792;46.236;6.040;2022-10-20T06:32:11;23.80;64.90
74359;DHT22;62792;46.236;6.040;2022-10-20T06:37:14;23.60;67.00
74359;DHT22;62792;46.236;6.040;2022-10-20T06:42:17;23.50;67.80
74359;DHT22;62792;46.236;6.040;2022-10-20T06:47:21;23.50;68.10
74359;DHT22;62792;46.236;6.040;2022-10-20T06:52:24;23.50;68.20
74359;DHT22;62792;46.236;6.040;2022-10-20T06:57:26;23.40;68.80
74359;DHT22;62792;46.236;6.040;2022-10-20T07:02:33;23.50;69.10
74359;DHT22;62792;46.236;6.040;2022-10-20T07:07:36;23.50;69.90
74359;DHT22;62792;46.236;6.040;2022-10-20T07:12:39;23.40;70.30
74359;DHT22;62792;46.236;6.040;2022-10-20T07:17:42;23.60;69.60
74359;DHT22;62792;46.236;6.040;2022-10-20T07:22:45;23.50;69.80
74359;DHT22;62792;46.236;6.040;2022-10-20T07:27:48;23.50;69.50
74359;DHT22;62792;46.236;6.040;2022-10-20T07:32:52;23.60;68.60
74359;DHT22;62792;46.236;6.040;2022-10-20T07:37:54;23.70;67.80
74359;DHT22;62792;46.236;6.040;2022-10-20T07:42:57;23.90;67.70
74359;DHT22;62792;46.236;6.040;2022-10-20T07:48:01;23.90;67.80
74359;DHT22;62792;46.236;6.040;2022-10-20T07:53:04;24.10;67.80
74359;DHT22;62792;46.236;6.040;2022-10-20T07:58:07;24.10;67.60
74359;DHT22;62792;46.236;6.040;2022-10-20T08:03:12;24.10;67.10
74359;DHT22;62792;46.236;6.040;2022-10-20T08:08:15;24.10;67.10
74359;DHT22;62792;46.236;6.040;2022-10-20T08:13:18;24.00;67.20
74359;DHT22;62792;46.236;6.040;2022-10-20T08:18:22;24.00;67.40
74359;DHT22;62792;46.236;6.040;2022-10-20T08:23:25;24.10;67.40
74359;DHT22;62792;46.236;6.040;2022-10-20T08:28:28;24.20;67.70
74359;DHT22;62792;46.236;6.040;2022-10-20T08:33:32;24.20;67.30
74359;DHT22;62792;46.236;6.040;2022-10-20T08:38:35;24.40;67.00
74359;DHT22;62792;46.236;6.040;2022-10-20T08:43:39;24.20;68.30
74359;DHT22;62792;46.236;6.040;2022-10-20T08:48:44;24.10;67.90
74359;DHT22;62792;46.236;6.040;2022-10-20T08:53:48;24.20;67.80
74359;DHT22;62792;46.236;6.040;2022-10-20T08:58:52;24.10;67.70
74359;DHT22;62792;46.236;6.040;2022-10-20T09:03:56;24.10;68.10
74359;DHT22;62792;46.236;6.040;2022-10-20T09:09:00;24.10;67.80
74359;DHT22;62792;46.236;6.040;2022-10-20T09:14:02;24.20;67.90
74359;DHT22;62792;46.236;6.040;2022-10-20T09:19:19;24.00;68.30
74359;DHT22;62792;46.236;6.040;2022-10-20T09:24:22;23.80;68.50
74359;DHT22;62792;46.236;6.040;2022-10-20T09:29:33;23.90;68.50
74359;DHT22;62792;46.236;6.040;2022-10-20T09:34:37;23.90;68.90
74359;DHT22;62792;46.236;6.040;2022-10-20T09:39:41;24.10;68.70
74359;DHT22;62792;46.236;6.040;2022-10-20T09:44:46;24.10;68.30
74359;DHT22;62792;46.236;6.040;2022-10-20T09:49:52;24.20;68.00
74359;DHT22;62792;46.236;6.040;2022-10-20T09:55:02;24.50;67.50
74359;DHT22;62792;46.236;6.040;2022-10-20T10:00:05;24.60;66.90
74359;DHT22;62792;46.236;6.040;2022-10-20T10:05:27;24.70;66.60
74359;DHT22;62792;46.236;6.040;2022-10-20T10:10:34;24.60;66.70
74359;DHT22;62792;46.236;6.040;2022-10-20T10:15:37;24.70;66.60
74359;DHT22;62792;46.236;6.040;2022-10-20T10:20:41;24.70;66.30
74359;DHT22;62792;46.236;6.040;2022-10-20T10:25:45;24.70;66.40
74359;DHT22;62792;46.236;6.040;2022-10-20T10:30:48;24.80;66.30
74359;DHT22;62792;46.236;6.040;2022-10-20T10:35:52;24.80;66.10
74359;DHT22;62792;46.236;6.040;2022-10-20T10:40:59;24.80;65.80
74359;DHT22;62792;46.236;6.040;2022-10-20T10:46:06;24.80;65.60
74359;DHT22;62792;46.236;6.040;2022-10-20T10:51:12;24.80;66.00
74359;DHT22;62792;46.236;6.040;2022-10-20T10:56:22;24.90;65.80
74359;DHT22;62792;46.236;6.040;2022-10-20T11:01:30;24.90;65.60
74359;DHT22;62792;46.236;6.040;2022-10-20T11:06:38;24.90;65.70
74359;DHT22;62792;46.236;6.040;2022-10-20T11:12:03;24.90;65.50
74359;DHT22;62792;46.236;6.040;2022-10-20T11:17:15;24.80;65.60
74359;DHT22;62792;46.236;6.040;2022-10-20T11:22:25;24.90;65.50
74359;DHT22;62792;46.236;6.040;2022-10-20T11:27:34;24.40;67.50
74359;DHT22;62792;46.236;6.040;2022-10-20T11:32:38;24.30;68.50
74359;DHT22;62792;46.236;6.040;2022-10-20T11:37:46;24.20;69.30
74359;DHT22;62792;46.236;6.040;2022-10-20T11:42:53;24.20;69.10
74359;DHT22;62792;46.236;6.040;2022-10-20T11:47:57;24.40;68.80
74359;DHT22;62792;46.236;6.040;2022-10-20T11:53:11;24.30;69.00
74359;DHT22;62792;46.236;6.040;2022-10-20T11:58:21;24.20;69.70
74359;DHT22;62792;46.236;6.040;2022-10-20T12:03:30;24.30;69.40
74359;DHT22;62792;46.236;6.040;2022-10-20T12:08:44;24.30;68.90
74359;DHT22;62792;46.236;6.040;2022-10-20T12:13:53;24.40;69.40
74359;DHT22;62792;46.236;6.040;2022-10-20T12:19:05;24.40;69.10
74359;DHT22;62792;46.236;6.040;2022-10-20T12:34:49;24.30;70.20
74359;DHT22;62792;46.236;6.040;2022-10-20T12:39:53;24.30;69.80
74359;DHT22;62792;46.236;6.040;2022-10-20T12:45:00;24.40;70.00
74359;DHT22;62792;46.236;6.040;2022-10-20T12:50:06;24.50;69.40
74359;DHT22;62792;46.236;6.040;2022-10-20T12:55:13;24.40;70.10
74359;DHT22;62792;46.236;6.040;2022-10-20T13:05:47;24.80;69.30
74359;DHT22;62792;46.236;6.040;2022-10-20T13:10:50;24.90;69.20
74359;DHT22;62792;46.236;6.040;2022-10-20T13:15:54;24.60;69.10
74359;DHT22;62792;46.236;6.040;2022-10-20T13:20:59;24.50;69.10
74359;DHT22;62792;46.236;6.040;2022-10-20T13:26:04;24.50;69.40
74359;DHT22;62792;46.236;6.040;2022-10-20T13:31:15;24.50;69.60
74359;DHT22;62792;46.236;6.040;2022-10-20T13:36:26;24.50;69.20
74359;DHT22;62792;46.236;6.040;2022-10-20T13:41:36;24.50;69.80
74359;DHT22;62792;46.236;6.040;2022-10-20T13:46:47;24.40;69.60
74359;DHT22;62792;46.236;6.040;2022-10-20T13:51:56;24.40;69.80
74359;DHT22;62792;46.236;6.040;2022-10-20T13:57:00;24.40;69.90
74359;DHT22;62792;46.236;6.040;2022-10-20T14:02:19;24.40;70.10
74359;DHT22;62792;46.236;6.040;2022-10-20T14:07:25;24.30;70.30
74359;DHT22;62792;46.236;6.040;2022-10-20T14:12:36;24.40;70.00
74359;DHT22;62792;46.236;6.040;2022-10-20T14:17:39;24.40;70.00
74359;DHT22;62792;46.236;6.040;2022-10-20T14:22:43;24.20;72.10
74359;DHT22;62792;46.236;6.040;2022-10-20T14:28:36;24.40;71.80
74359;DHT22;62792;46.236;6.040;2022-10-20T14:33:41;24.40;70.80
74359;DHT22;62792;46.236;6.040;2022-10-20T14:38:45;24.40;71.00
74359;DHT22;62792;46.236;6.040;2022-10-20T14:43:49;24.60;70.80
74359;DHT22;62792;46.236;6.040;2022-10-20T14:48:53;24.50;70.90
74359;DHT22;62792;46.236;6.040;2022-10-20T14:54:13;24.50;71.20
74359;DHT22;62792;46.236;6.040;2022-10-20T14:59:19;24.60;70.70
74359;DHT22;62792;46.236;6.040;2022-10-20T15:04:24;24.50;70.60
74359;DHT22;62792;46.236;6.040;2022-10-20T15:09:28;24.60;71.20
74359;DHT22;62792;46.236;6.040;2022-10-20T15:14:33;24.50;71.40
74359;DHT22;62792;46.236;6.040;2022-10-20T15:19:35;24.50;71.10
74359;DHT22;62792;46.236;6.040;2022-10-20T15:24:38;24.50;70.90
74359;DHT22;62792;46.236;6.040;2022-10-20T15:29:45;24.50;70.60
74359;DHT22;62792;46.236;6.040;2022-10-20T15:34:48;24.40;70.70
74359;DHT22;62792;46.236;6.040;2022-10-20T15:39:51;24.40;70.30
74359;DHT22;62792;46.236;6.040;2022-10-20T15:44:56;24.40;70.40
74359;DHT22;62792;46.236;6.040;2022-10-20T15:49:59;24.50;70.30
74359;DHT22;62792;46.236;6.040;2022-10-20T15:55:11;24.50;70.20
74359;DHT22;62792;46.236;6.040;2022-10-20T16:00:24;24.40;70.30
74359;DHT22;62792;46.236;6.040;2022-10-20T16:05:27;24.30;70.20
74359;DHT22;62792;46.236;6.040;2022-10-20T16:10:30;24.30;70.40
74359;DHT22;62792;46.236;6.040;2022-10-20T16:15:34;24.30;70.40
74359;DHT22;62792;46.236;6.040;2022-10-20T16:20:37;24.20;70.60
74359;DHT22;62792;46.236;6.040;2022-10-20T16:25:39;24.10;70.70
74359;DHT22;62792;46.236;6.040;2022-10-20T16:30:43;24.00;70.80
74359;DHT22;62792;46.236;6.040;2022-10-20T16:35:46;24.00;70.30
74359;DHT22;62792;46.236;6.040;2022-10-20T16:40:55;24.00;70.50
74359;DHT22;62792;46.236;6.040;2022-10-20T16:46:02;24.00;70.80
74359;DHT22;62792;46.236;6.040;2022-10-20T16:51:08;23.90;70.50
74359;DHT22;62792;46.236;6.040;2022-10-20T16:56:11;23.90;70.90
74359;DHT22;62792;46.236;6.040;2022-10-20T17:01:21;23.80;71.00
74359;DHT22;62792;46.236;6.040;2022-10-20T17:06:25;23.80;70.90
74359;DHT22;62792;46.236;6.040;2022-10-20T17:11:28;23.80;70.90
74359;DHT22;62792;46.236;6.040;2022-10-20T17:16:33;23.80;70.80
74359;DHT22;62792;46.236;6.040;2022-10-20T17:21:38;23.70;70.90
74359;DHT22;62792;46.236;6.040;2022-10-20T17:26:41;23.70;71.00
74359;DHT22;62792;46.236;6.040;2022-10-20T17:31:45;23.70;70.70
74359;DHT22;62792;46.236;6.040;2022-10-20T17:36:48;23.60;72.40
74359;DHT22;62792;46.236;6.040;2022-10-20T17:41:50;23.60;72.20
74359;DHT22;62792;46.236;6.040;2022-10-20T17:46:54;23.60;72.20
74359;DHT22;62792;46.236;6.040;2022-10-20T17:51:59;23.50;72.40
74359;DHT22;62792;46.236;6.040;2022-10-20T17:57:02;23.50;72.10
74359;DHT22;62792;46.236;6.040;2022-10-20T18:02:07;23.60;72.10
74359;DHT22;62792;46.236;6.040;2022-10-20T18:07:10;23.50;72.50
74359;DHT22;62792;46.236;6.040;2022-10-20T18:12:13;23.50;72.10
74359;DHT22;62792;46.236;6.040;2022-10-20T18:17:17;23.40;72.50
74359;DHT22;62792;46.236;6.040;2022-10-20T18:22:19;23.40;72.10
74359;DHT22;62792;46.236;6.040;2022-10-20T18:27:22;23.50;72.20
74359;DHT22;62792;46.236;6.040;2022-10-20T18:32:26;23.50;72.40
74359;DHT22;62792;46.236;6.040;2022-10-20T18:37:28;23.50;72.20
74359;DHT22;62792;46.236;6.040;2022-10-20T18:42:31;23.40;72.20
74359;DHT22;62792;46.236;6.040;2022-10-20T18:47:35;23.50;72.30
74359;DHT22;62792;46.236;6.040;2022-10-20T18:52:39;23.40;72.00
74359;DHT22;62792;46.236;6.040;2022-10-20T18:57:41;23.40;71.90
74359;DHT22;62792;46.236;6.040;2022-10-20T19:02:49;23.30;72.20
74359;DHT22;62792;46.236;6.040;2022-10-20T19:07:58;23.40;72.10
74359;DHT22;62792;46.236;6.040;2022-10-20T19:13:01;23.40;72.10
74359;DHT22;62792;46.236;6.040;2022-10-20T19:18:04;23.40;72.10
74359;DHT22;62792;46.236;6.040;2022-10-20T19:23:07;23.40;71.80
74359;DHT22;62792;46.236;6.040;2022-10-20T19:28:10;23.30;72.10
74359;DHT22;62792;46.236;6.040;2022-10-20T19:33:14;23.30;72.10
74359;DHT22;62792;46.236;6.040;2022-10-20T19:38:17;23.30;71.90
74359;DHT22;62792;46.236;6.040;2022-10-20T19:43:19;23.30;72.10
74359;DHT22;62792;46.236;6.040;2022-10-20T19:48:24;23.30;72.00
74359;DHT22;62792;46.236;6.040;2022-10-20T19:53:26;23.20;72.10
74359;DHT22;62792;46.236;6.040;2022-10-20T19:58:29;23.30;71.70
74359;DHT22;62792;46.236;6.040;2022-10-20T20:03:33;23.20;72.20
74359;DHT22;62792;46.236;6.040;2022-10-20T20:08:36;23.20;72.00
74359;DHT22;62792;46.236;6.040;2022-10-20T20:13:39;23.20;71.60
74359;DHT22;62792;46.236;6.040;2022-10-20T20:18:43;23.30;71.90
74359;DHT22;62792;46.236;6.040;2022-10-20T20:23:45;23.20;71.80
74359;DHT22;62792;46.236;6.040;2022-10-20T20:29:00;23.30;72.10
74359;DHT22;62792;46.236;6.040;2022-10-20T20:34:04;23.20;71.70
74359;DHT22;62792;46.236;6.040;2022-10-20T20:39:07;23.30;71.70
74359;DHT22;62792;46.236;6.040;2022-10-20T20:44:10;23.20;72.00
74359;DHT22;62792;46.236;6.040;2022-10-20T20:49:14;23.20;72.00
74359;DHT22;62792;46.236;6.040;2022-10-20T20:54:17;23.30;71.80
74359;DHT22;62792;46.236;6.040;2022-10-20T20:59:19;23.20;71.80
74359;DHT22;62792;46.236;6.040;2022-10-20T21:04:23;23.20;71.50
74359;DHT22;62792;46.236;6.040;2022-10-20T21:09:31;23.20;71.80
74359;DHT22;62792;46.236;6.040;2022-10-20T21:14:33;23.20;71.60
74359;DHT22;62792;46.236;6.040;2022-10-20T21:19:37;23.20;71.70
74359;DHT22;62792;46.236;6.040;2022-10-20T21:24:40;23.10;72.00
74359;DHT22;62792;46.236;6.040;2022-10-20T21:29:42;23.20;71.70
74359;DHT22;62792;46.236;6.040;2022-10-20T21:34:48;23.10;71.30
74359;DHT22;62792;46.236;6.040;2022-10-20T21:39:50;23.20;71.60
74359;DHT22;62792;46.236;6.040;2022-10-20T21:44:53;23.30;71.20
74359;DHT22;62792;46.236;6.040;2022-10-20T21:49:57;23.20;71.40
74359;DHT22;62792;46.236;6.040;2022-10-20T21:55:00;23.30;71.50
74359;DHT22;62792;46.236;6.040;2022-10-20T22:00:02;23.20;71.40
74359;DHT22;62792;46.236;6.040;2022-10-20T22:05:07;23.10;71.30
74359;DHT22;62792;46.236;6.040;2022-10-20T22:10:09;23.20;71.10
74359;DHT22;62792;46.236;6.040;2022-10-20T22:15:12;23.20;71.20
74359;DHT22;62792;46.236;6.040;2022-10-20T22:20:16;23.20;71.20
74359;DHT22;62792;46.236;6.040;2022-10-20T22:25:18;23.10;71.30
74359;DHT22;62792;46.236;6.040;2022-10-20T22:30:21;23.10;71.30
74359;DHT22;62792;46.236;6.040;2022-10-20T22:35:25;23.10;71.20
74359;DHT22;62792;46.236;6.040;2022-10-20T22:40:28;23.10;71.30
74359;DHT22;62792;46.236;6.040;2022-10-20T22:45:31;23.00;71.10
74359;DHT22;62792;46.236;6.040;2022-10-20T22:50:35;23.10;71.10
74359;DHT22;62792;46.236;6.040;2022-10-20T22:55:37;23.10;71.10
74359;DHT22;62792;46.236;6.040;2022-10-20T23:00:40;23.00;71.30
74359;DHT22;62792;46.236;6.040;2022-10-20T23:05:45;23.00;71.20
74359;DHT22;62792;46.236;6.040;2022-10-20T23:10:54;23.00;71.20
74359;DHT22;62792;46.236;6.040;2022-10-20T23:15:57;23.00;71.30
74359;DHT22;62792;46.236;6.040;2022-10-20T23:21:01;23.10;70.90
74359;DHT22;62792;46.236;6.040;2022-10-20T23:26:04;23.10;71.00
74359;DHT22;62792;46.236;6.040;2022-10-20T23:31:08;23.00;71.40
74359;DHT22;62792;46.236;6.040;2022-10-20T23:36:13;23.00;71.30
74359;DHT22;62792;46.236;6.040;2022-10-20T23:41:15;23.00;71.20
74359;DHT22;62792;46.236;6.040;2022-10-20T23:46:18;23.00;70.90
74359;DHT22;62792;46.236;6.040;2022-10-20T23:51:22;23.00;71.00
74359;DHT22;62792;46.236;6.040;2022-10-20T23:56:24;23.00;71.10
